createdAt,value
2017-05-09T04:44:24.069Z,65
2017-05-09T04:44:49.528Z,65
2017-05-09T04:45:15.012Z,65
2017-05-09T04:45:40.492Z,65
2017-05-09T04:46:05.976Z,65
2017-05-09T04:46:31.442Z,65
2017-05-09T04:46:56.919Z,65
2017-05-09T04:47:22.382Z,65
2017-05-09T04:47:47.848Z,60
2017-05-09T04:48:13.342Z,70
2017-05-09T04:48:38.841Z,70
2017-05-09T04:49:04.386Z,70
2017-05-09T04:49:29.854Z,70
2017-05-09T04:49:55.363Z,70
2017-05-09T04:50:20.828Z,70
2017-05-09T04:50:46.321Z,70
2017-05-09T04:51:11.808Z,70
2017-05-09T04:51:37.249Z,70
2017-05-09T04:52:02.745Z,70
2017-05-09T04:52:28.190Z,70
2017-05-09T04:52:53.658Z,70
2017-05-09T04:53:19.124Z,70
2017-05-09T04:53:44.598Z,75
2017-05-09T04:54:10.062Z,75
2017-05-09T04:54:35.519Z,75
2017-05-09T04:55:00.973Z,75
2017-05-09T04:55:26.428Z,75
2017-05-09T04:55:51.902Z,80
2017-05-09T04:56:17.376Z,80
2017-05-09T04:56:42.845Z,80
2017-05-09T04:57:08.305Z,80
2017-05-09T04:57:33.752Z,80
2017-05-09T04:57:59.194Z,85
2017-05-09T04:58:24.656Z,85
2017-05-09T04:58:50.107Z,85
2017-05-09T04:59:15.588Z,85
2017-05-09T04:59:41.032Z,75
2017-05-09T05:00:06.526Z,80
2017-05-09T05:00:31.990Z,90
2017-05-09T05:00:57.456Z,90
2017-05-09T05:01:22.942Z,95
2017-05-09T05:01:48.365Z,95
2017-05-09T05:02:13.884Z,95
2017-05-09T05:02:39.361Z,95
2017-05-09T05:03:04.818Z,95
2017-05-09T05:03:30.270Z,95
2017-05-09T05:03:55.732Z,100
2017-05-09T05:04:21.203Z,100
2017-05-09T05:04:46.672Z,100
2017-05-09T05:05:12.132Z,100
2017-05-09T05:05:37.624Z,100
2017-05-09T05:06:03.071Z,100
2017-05-09T05:06:28.545Z,100
2017-05-09T05:06:54.002Z,100
2017-05-09T05:07:19.474Z,100
2017-05-09T05:07:44.941Z,90
2017-05-09T05:08:10.401Z,90
2017-05-09T05:08:35.882Z,95
2017-05-09T05:09:01.362Z,100
2017-05-09T05:09:26.854Z,100
2017-05-09T05:09:52.311Z,100
2017-05-09T05:10:17.797Z,95
2017-05-09T05:10:43.253Z,90
2017-05-09T05:11:08.743Z,90
2017-05-09T05:11:34.183Z,90
2017-05-09T05:11:59.657Z,95
2017-05-09T05:12:25.111Z,95
2017-05-09T05:12:50.594Z,95
2017-05-09T05:13:16.063Z,100
2017-05-09T05:13:41.592Z,100
2017-05-09T05:14:07.068Z,100
2017-05-09T05:14:32.538Z,100
2017-05-09T05:14:58.012Z,105
2017-05-09T05:15:23.466Z,105
2017-05-09T05:15:48.960Z,105
2017-05-09T05:16:14.418Z,105
2017-05-09T05:16:39.887Z,105
2017-05-09T05:17:05.329Z,110
2017-05-09T05:17:30.831Z,115
2017-05-09T05:17:56.321Z,115
2017-05-09T05:18:21.818Z,115
2017-05-09T05:18:47.277Z,115
2017-05-09T05:19:12.729Z,115
2017-05-09T05:19:38.212Z,120
2017-05-09T05:20:03.692Z,120
2017-05-09T05:20:29.157Z,120
2017-05-09T05:20:54.653Z,120
2017-05-09T05:21:20.120Z,120
2017-05-09T05:21:45.578Z,120
2017-05-09T05:22:11.055Z,120
2017-05-09T05:22:36.527Z,115
2017-05-09T05:23:02.006Z,120
2017-05-09T05:23:27.460Z,125
2017-05-09T05:23:52.955Z,125
2017-05-09T05:24:18.423Z,125
2017-05-09T05:24:43.894Z,120
2017-05-09T05:25:09.392Z,120
2017-05-09T05:25:34.868Z,105
2017-05-09T05:26:00.371Z,100
2017-05-09T05:26:25.873Z,110
2017-05-09T05:26:51.347Z,100
2017-05-09T05:27:16.844Z,115
2017-05-09T05:27:42.321Z,115
2017-05-09T05:28:07.775Z,115
2017-05-09T05:28:33.234Z,115
2017-05-09T05:28:58.710Z,115
2017-05-09T05:29:24.166Z,115
2017-05-09T05:29:49.624Z,115
2017-05-09T05:30:15.082Z,125
2017-05-09T05:30:40.540Z,130
2017-05-09T05:31:06.055Z,135
2017-05-09T05:31:31.563Z,135
2017-05-09T05:31:57.015Z,135
2017-05-09T05:32:22.466Z,135
2017-05-09T05:32:47.944Z,135
2017-05-09T05:33:13.439Z,135
2017-05-09T05:33:38.859Z,135
2017-05-09T05:34:04.342Z,140
2017-05-09T05:34:29.781Z,140
2017-05-09T05:34:55.237Z,140
2017-05-09T05:35:20.704Z,140
2017-05-09T05:35:46.136Z,140
2017-05-09T05:36:11.600Z,145
2017-05-09T05:36:37.077Z,145
2017-05-09T05:37:02.507Z,145
2017-05-09T05:37:28.035Z,145
2017-05-09T05:37:53.458Z,145
2017-05-09T05:38:18.936Z,145
2017-05-09T05:38:44.433Z,145
2017-05-09T05:39:09.919Z,145
2017-05-09T05:39:35.356Z,160
2017-05-09T05:40:00.841Z,190
2017-05-09T05:40:26.274Z,235
2017-05-09T05:40:51.790Z,280
2017-05-09T05:41:17.236Z,325
2017-05-09T05:41:42.719Z,350
2017-05-09T05:42:08.185Z,340
2017-05-09T05:42:33.711Z,325
2017-05-09T05:42:59.139Z,290
2017-05-09T05:43:24.625Z,255
2017-05-09T05:43:50.044Z,235
2017-05-09T05:44:15.556Z,210
2017-05-09T05:44:40.998Z,195
2017-05-09T05:45:06.469Z,190
2017-05-09T05:45:31.941Z,185
2017-05-09T05:45:57.392Z,185
2017-05-09T05:46:22.867Z,180
2017-05-09T05:46:48.316Z,180
2017-05-09T05:47:13.763Z,175
2017-05-09T05:47:39.248Z,165
2017-05-09T05:48:04.699Z,170
2017-05-09T05:48:30.184Z,180
2017-05-09T05:48:55.640Z,180
2017-05-09T05:49:21.086Z,180
2017-05-09T05:49:46.573Z,180
2017-05-09T05:50:12.046Z,185
2017-05-09T05:50:37.522Z,185
2017-05-09T05:51:02.966Z,190
2017-05-09T05:51:28.445Z,190
2017-05-09T05:51:53.894Z,190
2017-05-09T05:52:19.364Z,190
2017-05-09T05:52:44.799Z,190
2017-05-09T05:53:10.256Z,190
2017-05-09T05:53:35.739Z,185
2017-05-09T05:54:01.172Z,180
2017-05-09T05:54:26.664Z,170
2017-05-09T05:54:52.103Z,170
2017-05-09T05:55:17.557Z,170
2017-05-09T05:55:43.028Z,160
2017-05-09T05:56:08.516Z,155
2017-05-09T05:56:33.988Z,175
2017-05-09T05:56:59.470Z,175
2017-05-09T05:57:24.961Z,170
2017-05-09T05:57:50.419Z,165
2017-05-09T05:58:15.918Z,165
2017-05-09T05:58:41.377Z,165
2017-05-09T05:59:06.838Z,165
2017-05-09T05:59:32.369Z,165
2017-05-09T05:59:57.916Z,165
2017-05-09T06:00:23.301Z,165
2017-05-09T06:00:48.790Z,165
2017-05-09T06:01:14.237Z,170
2017-05-09T06:01:39.711Z,170
2017-05-09T06:02:05.190Z,170
2017-05-09T06:02:30.637Z,170
2017-05-09T06:02:56.136Z,170
2017-05-09T06:03:21.580Z,170
2017-05-09T06:03:47.042Z,170
2017-05-09T06:04:12.496Z,170
2017-05-09T06:04:37.962Z,170
2017-05-09T06:05:03.414Z,165
2017-05-09T06:05:28.873Z,165
2017-05-09T06:05:54.309Z,160
2017-05-09T06:06:19.757Z,160
2017-05-09T06:06:45.248Z,155
2017-05-09T06:07:10.671Z,155
2017-05-09T06:07:36.168Z,155
2017-05-09T06:08:01.698Z,155
2017-05-09T06:08:27.108Z,155
2017-05-09T06:08:52.587Z,160
2017-05-09T06:09:18.050Z,155
2017-05-09T06:09:43.535Z,150
2017-05-09T06:10:09.027Z,160
2017-05-09T06:10:34.501Z,160
2017-05-09T06:10:59.941Z,165
2017-05-09T06:11:25.427Z,165
2017-05-09T06:11:50.902Z,165
2017-05-09T06:12:16.371Z,165
2017-05-09T06:12:41.815Z,165
2017-05-09T06:13:07.277Z,165
2017-05-09T06:13:32.720Z,165
2017-05-09T06:13:58.238Z,165
2017-05-09T06:14:23.695Z,165
2017-05-09T06:14:49.187Z,165
2017-05-09T06:15:14.619Z,170
2017-05-09T06:15:40.078Z,170
2017-05-09T06:16:05.595Z,160
2017-05-09T06:16:31.053Z,165
2017-05-09T06:16:56.497Z,165
2017-05-09T06:17:21.945Z,165
2017-05-09T06:17:47.429Z,170
2017-05-09T06:18:12.902Z,165
2017-05-09T06:18:38.386Z,170
2017-05-09T06:19:03.872Z,165
2017-05-09T06:19:29.312Z,170
2017-05-09T06:19:54.747Z,175
2017-05-09T06:20:20.208Z,175
2017-05-09T06:20:45.674Z,170
2017-05-09T06:21:11.120Z,170
2017-05-09T06:21:36.594Z,170
2017-05-09T06:22:02.043Z,170
2017-05-09T06:22:27.504Z,170
2017-05-09T06:22:53.037Z,170
2017-05-09T06:23:18.456Z,170
2017-05-09T06:23:43.906Z,170
2017-05-09T06:24:09.360Z,170
2017-05-09T06:24:34.817Z,170
2017-05-09T06:25:00.354Z,170
2017-05-09T06:25:25.789Z,170
2017-05-09T06:25:51.256Z,170
2017-05-09T06:26:16.708Z,170
2017-05-09T06:26:42.131Z,170
2017-05-09T06:27:07.634Z,170
2017-05-09T06:27:33.075Z,170
2017-05-09T06:27:58.572Z,170
2017-05-09T06:28:24.042Z,170
2017-05-09T06:28:49.485Z,170
2017-05-09T06:29:14.963Z,170
2017-05-09T06:29:40.429Z,170
2017-05-09T06:30:05.914Z,170
2017-05-09T06:30:31.368Z,170
2017-05-09T06:30:56.823Z,170
2017-05-09T06:31:22.293Z,150
2017-05-09T06:31:47.760Z,150
2017-05-09T06:32:13.220Z,155
2017-05-09T06:32:38.679Z,160
2017-05-09T06:33:04.142Z,165
2017-05-09T06:33:29.610Z,165
2017-05-09T06:33:55.108Z,165
2017-05-09T06:34:20.577Z,165
2017-05-09T06:34:46.044Z,165
2017-05-09T06:35:11.518Z,165
2017-05-09T06:35:36.983Z,165
2017-05-09T06:36:02.470Z,165
2017-05-09T06:36:27.942Z,175
2017-05-09T06:36:53.443Z,175
2017-05-09T06:37:18.928Z,175
2017-05-09T06:37:44.402Z,170
2017-05-09T06:38:09.911Z,175
2017-05-09T06:38:35.361Z,175
2017-05-09T06:39:00.840Z,175
2017-05-09T06:39:26.320Z,175
2017-05-09T06:39:51.806Z,175
2017-05-09T06:40:17.285Z,175
2017-05-09T06:40:42.797Z,175
2017-05-09T06:41:08.287Z,175
2017-05-09T06:41:33.787Z,175
2017-05-09T06:41:59.246Z,175
2017-05-09T06:42:24.749Z,175
2017-05-09T06:42:50.190Z,175
2017-05-09T06:43:15.722Z,175
2017-05-09T06:43:41.184Z,175
2017-05-09T06:44:06.648Z,175
2017-05-09T06:44:32.082Z,175
2017-05-09T06:44:57.798Z,175
2017-05-09T06:45:23.470Z,175
2017-05-09T06:45:48.959Z,170
2017-05-09T06:46:14.437Z,175
2017-05-09T06:46:39.890Z,175
2017-05-09T06:47:05.403Z,170
2017-05-09T06:47:30.893Z,170
2017-05-09T06:47:56.371Z,170
2017-05-09T06:48:21.846Z,170
2017-05-09T06:48:47.299Z,175
2017-05-09T06:49:12.761Z,175
2017-05-09T06:49:38.246Z,175
2017-05-09T06:50:03.715Z,175
2017-05-09T06:50:29.172Z,175
2017-05-09T06:50:54.645Z,175
2017-05-09T06:51:20.145Z,175
2017-05-09T06:51:45.631Z,175
2017-05-09T06:52:11.112Z,175
2017-05-09T06:52:36.567Z,175
2017-05-09T06:53:02.034Z,175
2017-05-09T06:53:27.530Z,170
2017-05-09T06:53:53.010Z,170
2017-05-09T06:54:18.489Z,170
2017-05-09T06:54:43.986Z,170
2017-05-09T06:55:09.462Z,170
2017-05-09T06:55:34.933Z,175
2017-05-09T06:56:00.440Z,170
2017-05-09T06:56:25.904Z,170
2017-05-09T06:56:51.366Z,170
2017-05-09T06:57:16.841Z,165
2017-05-09T06:57:42.355Z,170
2017-05-09T06:58:07.827Z,170
2017-05-09T06:58:33.301Z,170
2017-05-09T06:58:58.788Z,170
2017-05-09T06:59:24.254Z,175
2017-05-09T06:59:49.779Z,170
2017-05-09T07:00:15.228Z,170
2017-05-09T07:00:40.721Z,170
2017-05-09T07:01:06.210Z,170
2017-05-09T07:01:31.672Z,170
2017-05-09T07:01:57.136Z,170
2017-05-09T07:02:22.571Z,170
2017-05-09T07:02:48.061Z,170
2017-05-09T07:03:13.532Z,170
2017-05-09T07:03:38.991Z,170
2017-05-09T07:04:04.436Z,170
2017-05-09T07:04:29.912Z,170
2017-05-09T07:04:55.363Z,170
2017-05-09T07:05:20.808Z,170
2017-05-09T07:05:46.281Z,170
2017-05-09T07:06:11.746Z,145
2017-05-09T07:06:37.196Z,165
2017-05-09T07:07:02.666Z,170
2017-05-09T07:07:28.134Z,170
2017-05-09T07:07:53.601Z,170
2017-05-09T07:08:19.100Z,170
2017-05-09T07:08:44.558Z,170
2017-05-09T07:09:10.059Z,170
2017-05-09T07:09:35.534Z,170
2017-05-09T07:10:01.005Z,165
2017-05-09T07:10:26.493Z,165
2017-05-09T07:10:51.961Z,165
2017-05-09T07:11:17.436Z,165
2017-05-09T07:11:42.911Z,165
2017-05-09T07:12:08.377Z,165
2017-05-09T07:12:33.854Z,160
2017-05-09T07:12:59.326Z,165
2017-05-09T07:13:24.771Z,160
2017-05-09T07:13:50.255Z,165
2017-05-09T07:14:15.733Z,165
2017-05-09T07:14:41.199Z,165
2017-05-09T07:15:06.727Z,165
2017-05-09T07:15:32.196Z,165
2017-05-09T07:15:57.631Z,165
2017-05-09T07:16:23.081Z,165
2017-05-09T07:16:48.535Z,165
2017-05-09T07:17:14.032Z,165
2017-05-09T07:17:39.493Z,165
2017-05-09T07:18:04.957Z,145
2017-05-09T07:18:30.457Z,165
2017-05-09T07:18:55.949Z,170
2017-05-09T07:19:21.404Z,170
2017-05-09T07:19:46.847Z,170
2017-05-09T07:20:12.305Z,170
2017-05-09T07:20:37.776Z,170
2017-05-09T07:21:03.268Z,170
2017-05-09T07:21:28.738Z,170
2017-05-09T07:21:54.227Z,170
2017-05-09T07:22:19.711Z,170
2017-05-09T07:22:45.171Z,170
2017-05-09T07:23:10.655Z,170
2017-05-09T07:23:36.121Z,170
2017-05-09T07:24:01.619Z,170
2017-05-09T07:24:27.089Z,170
2017-05-09T07:24:52.553Z,170
2017-05-09T07:25:18.018Z,170
2017-05-09T07:25:43.599Z,170
2017-05-09T07:26:09.090Z,165
2017-05-09T07:26:34.531Z,165
2017-05-09T07:27:00.026Z,160
2017-05-09T07:27:25.495Z,145
2017-05-09T07:27:50.960Z,145
2017-05-09T07:28:16.446Z,145
2017-05-09T07:28:41.916Z,165
2017-05-09T07:29:07.410Z,170
2017-05-09T07:29:32.893Z,170
2017-05-09T07:29:58.346Z,165
2017-05-09T07:30:23.824Z,165
2017-05-09T07:30:49.323Z,165
2017-05-09T07:31:14.800Z,165
2017-05-09T07:31:40.278Z,165
2017-05-09T07:32:05.768Z,165
2017-05-09T07:32:31.246Z,165
2017-05-09T07:32:56.710Z,170
2017-05-09T07:33:22.181Z,170
2017-05-09T07:33:47.654Z,170
2017-05-09T07:34:13.126Z,170
2017-05-09T07:34:38.574Z,170
2017-05-09T07:35:04.033Z,170
2017-05-09T07:35:29.510Z,175
2017-05-09T07:35:54.970Z,175
2017-05-09T07:36:20.446Z,175
2017-05-09T07:36:45.915Z,175
2017-05-09T07:37:11.388Z,180
2017-05-09T07:37:36.869Z,180
2017-05-09T07:38:02.330Z,180
2017-05-09T07:38:27.800Z,180
2017-05-09T07:38:53.262Z,180
2017-05-09T07:39:18.759Z,180
2017-05-09T07:39:44.176Z,180
2017-05-09T07:40:09.660Z,180
2017-05-09T07:40:35.118Z,180
2017-05-09T07:41:00.616Z,180
2017-05-09T07:41:26.093Z,185
2017-05-09T07:41:51.572Z,190
2017-05-09T07:42:17.076Z,195
2017-05-09T07:42:42.568Z,200
2017-05-09T07:43:08.051Z,200
2017-05-09T07:43:33.541Z,200
2017-05-09T07:43:59.007Z,200
2017-05-09T07:44:24.501Z,185
2017-05-09T07:44:49.976Z,200
2017-05-09T07:45:15.463Z,210
2017-05-09T07:45:40.938Z,270
2017-05-09T07:46:06.415Z,490
2017-05-09T07:46:31.877Z,710
2017-05-09T07:46:57.341Z,910
2017-05-09T07:47:22.827Z,1050
2017-05-09T07:47:48.291Z,1160
2017-05-09T07:48:13.799Z,1135
2017-05-09T07:48:39.278Z,995
2017-05-09T07:49:04.742Z,855
2017-05-09T07:49:30.241Z,700
2017-05-09T07:49:55.689Z,525
2017-05-09T07:50:21.175Z,365
2017-05-09T07:50:46.657Z,245
2017-05-09T07:51:12.121Z,215
2017-05-09T07:51:37.594Z,210
2017-05-09T07:52:03.064Z,190
2017-05-09T07:52:28.520Z,170
2017-05-09T07:52:53.997Z,180
2017-05-09T07:53:19.501Z,175
2017-05-09T07:53:44.979Z,170
2017-05-09T07:54:10.466Z,170
2017-05-09T07:54:35.896Z,170
2017-05-09T07:55:01.355Z,170
2017-05-09T07:55:26.830Z,170
2017-05-09T07:55:52.319Z,170
2017-05-09T07:56:17.776Z,170
2017-05-09T07:56:43.274Z,170
2017-05-09T07:57:08.744Z,170
2017-05-09T07:57:34.241Z,165
2017-05-09T07:57:59.723Z,165
2017-05-09T07:58:25.171Z,165
2017-05-09T07:58:50.645Z,165
2017-05-09T07:59:16.104Z,165
2017-05-09T07:59:41.570Z,165
2017-05-09T08:00:07.055Z,165
2017-05-09T08:00:32.569Z,165
2017-05-09T08:00:58.033Z,165
2017-05-09T08:01:23.503Z,165
2017-05-09T08:01:48.991Z,160
2017-05-09T08:02:14.432Z,160
2017-05-09T08:02:39.920Z,160
2017-05-09T08:03:05.373Z,160
2017-05-09T08:03:30.849Z,160
2017-05-09T08:03:56.324Z,160
2017-05-09T08:04:21.797Z,160
2017-05-09T08:04:47.268Z,160
2017-05-09T08:05:12.757Z,150
2017-05-09T08:05:38.243Z,155
2017-05-09T08:06:03.693Z,160
2017-05-09T08:06:29.176Z,160
2017-05-09T08:06:54.641Z,160
2017-05-09T08:07:20.155Z,160
2017-05-09T08:07:45.650Z,160
2017-05-09T08:08:11.145Z,160
2017-05-09T08:08:36.641Z,160
2017-05-09T08:09:02.090Z,160
2017-05-09T08:09:27.578Z,160
2017-05-09T08:09:53.053Z,155
2017-05-09T08:10:18.511Z,155
2017-05-09T08:10:43.997Z,155
2017-05-09T08:11:09.474Z,155
2017-05-09T08:11:34.936Z,155
2017-05-09T08:12:00.428Z,155
2017-05-09T08:12:25.899Z,155
2017-05-09T08:12:51.364Z,155
2017-05-09T08:13:16.828Z,160
2017-05-09T08:13:42.304Z,160
2017-05-09T08:14:07.771Z,160
2017-05-09T08:14:33.259Z,160
2017-05-09T08:14:58.763Z,160
2017-05-09T08:15:24.256Z,160
2017-05-09T08:15:49.713Z,160
2017-05-09T08:16:15.209Z,160
2017-05-09T08:16:40.684Z,160
2017-05-09T08:17:06.176Z,160
2017-05-09T08:17:31.625Z,165
2017-05-09T08:17:57.086Z,160
2017-05-09T08:18:22.575Z,160
2017-05-09T08:18:48.046Z,160
2017-05-09T08:19:13.521Z,160
2017-05-09T08:19:38.961Z,160
2017-05-09T08:20:04.411Z,155
2017-05-09T08:20:29.899Z,155
2017-05-09T08:20:55.357Z,155
2017-05-09T08:21:20.838Z,155
2017-05-09T08:21:46.279Z,155
2017-05-09T08:22:11.765Z,155
2017-05-09T08:22:37.238Z,155
2017-05-09T08:23:02.722Z,155
2017-05-09T08:23:28.203Z,155
2017-05-09T08:23:53.691Z,155
2017-05-09T08:24:19.174Z,155
2017-05-09T08:24:44.646Z,155
2017-05-09T08:25:10.106Z,155
2017-05-09T08:25:35.584Z,155
2017-05-09T08:26:01.049Z,155
2017-05-09T08:26:26.514Z,155
2017-05-09T08:26:52.006Z,155
2017-05-09T08:27:17.472Z,155
2017-05-09T08:27:42.954Z,160
2017-05-09T08:28:08.451Z,160
2017-05-09T08:28:33.947Z,160
2017-05-09T08:28:59.422Z,155
2017-05-09T08:29:24.907Z,155
2017-05-09T08:29:50.352Z,155
2017-05-09T08:30:15.819Z,155
2017-05-09T08:30:41.306Z,155
2017-05-09T08:31:06.794Z,150
2017-05-09T08:31:32.244Z,145
2017-05-09T08:31:57.721Z,150
2017-05-09T08:32:23.175Z,150
2017-05-09T08:32:48.655Z,150
2017-05-09T08:33:14.131Z,150
2017-05-09T08:33:39.598Z,150
2017-05-09T08:34:05.067Z,150
2017-05-09T08:34:30.577Z,150
2017-05-09T08:34:56.049Z,150
2017-05-09T08:35:21.511Z,150
2017-05-09T08:35:46.989Z,150
2017-05-09T08:36:12.468Z,150
2017-05-09T08:36:37.966Z,150
2017-05-09T08:37:03.438Z,150
2017-05-09T08:37:28.906Z,150
2017-05-09T08:37:54.394Z,150
2017-05-09T08:38:19.869Z,150
2017-05-09T08:38:45.344Z,150
2017-05-09T08:39:10.826Z,150
2017-05-09T08:39:36.299Z,150
2017-05-09T08:40:01.776Z,150
2017-05-09T08:40:27.236Z,150
2017-05-09T08:40:52.732Z,150
2017-05-09T08:41:18.215Z,150
2017-05-09T08:41:43.673Z,145
2017-05-09T08:42:09.132Z,150
2017-05-09T08:42:34.613Z,150
2017-05-09T08:43:00.052Z,150
2017-05-09T08:43:25.530Z,150
2017-05-09T08:43:51.023Z,150
2017-05-09T08:44:16.487Z,150
2017-05-09T08:44:41.953Z,150
2017-05-09T08:45:07.478Z,150
2017-05-09T08:45:32.940Z,145
2017-05-09T08:45:58.409Z,150
2017-05-09T08:46:23.854Z,150
2017-05-09T08:46:49.332Z,150
2017-05-09T08:47:14.805Z,150
2017-05-09T08:47:40.301Z,150
2017-05-09T08:48:05.804Z,150
2017-05-09T08:48:31.299Z,150
2017-05-09T08:48:56.777Z,150
2017-05-09T08:49:22.237Z,145
2017-05-09T08:49:47.712Z,145
2017-05-09T08:50:13.204Z,150
2017-05-09T08:50:38.695Z,150
2017-05-09T08:51:04.190Z,150
2017-05-09T08:51:29.635Z,150
2017-05-09T08:51:55.094Z,145
2017-05-09T08:52:20.567Z,150
2017-05-09T08:52:46.081Z,145
2017-05-09T08:53:11.559Z,145
2017-05-09T08:53:37.037Z,145
2017-05-09T08:54:02.515Z,150
2017-05-09T08:54:28.021Z,145
2017-05-09T08:54:53.522Z,150
2017-05-09T08:55:19.002Z,150
2017-05-09T08:55:44.490Z,150
2017-05-09T08:56:09.972Z,150
2017-05-09T08:56:35.469Z,150
2017-05-09T08:57:00.958Z,150
2017-05-09T08:57:26.441Z,150
2017-05-09T08:57:51.896Z,150
2017-05-09T08:58:17.356Z,150
2017-05-09T08:58:42.841Z,150
2017-05-09T08:59:08.313Z,150
2017-05-09T08:59:33.777Z,150
2017-05-09T08:59:59.294Z,150
2017-05-09T09:00:24.743Z,150
2017-05-09T09:00:50.199Z,155
2017-05-09T09:01:15.663Z,150
2017-05-09T09:01:41.138Z,155
2017-05-09T09:02:06.623Z,155
2017-05-09T09:02:32.122Z,155
2017-05-09T09:02:57.620Z,155
2017-05-09T09:03:23.118Z,155
2017-05-09T09:03:48.583Z,160
2017-05-09T09:04:14.060Z,155
2017-05-09T09:04:39.543Z,155
2017-05-09T09:05:05.021Z,155
2017-05-09T09:05:30.504Z,155
2017-05-09T09:05:55.976Z,155
2017-05-09T09:06:21.472Z,155
2017-05-09T09:06:46.929Z,155
2017-05-09T09:07:12.390Z,155
2017-05-09T09:07:37.884Z,155
2017-05-09T09:08:03.357Z,155
2017-05-09T09:08:28.800Z,155
2017-05-09T09:08:54.280Z,155
2017-05-09T09:09:19.785Z,155
2017-05-09T09:09:45.224Z,155
2017-05-09T09:10:10.696Z,155
2017-05-09T09:10:36.167Z,155
2017-05-09T09:11:01.646Z,155
2017-05-09T09:11:27.155Z,160
2017-05-09T09:11:52.632Z,160
2017-05-09T09:12:18.111Z,160
2017-05-09T09:12:43.568Z,160
2017-05-09T09:13:09.049Z,160
2017-05-09T09:13:34.534Z,165
2017-05-09T09:14:00.023Z,165
2017-05-09T09:14:25.514Z,165
2017-05-09T09:14:51.000Z,165
2017-05-09T09:15:16.469Z,160
2017-05-09T09:15:41.936Z,155
2017-05-09T09:16:07.390Z,155
2017-05-09T09:16:32.854Z,150
2017-05-09T09:16:58.344Z,150
2017-05-09T09:17:23.785Z,150
2017-05-09T09:17:49.255Z,150
2017-05-09T09:18:14.713Z,150
2017-05-09T09:18:40.205Z,150
2017-05-09T09:19:05.690Z,150
2017-05-09T09:19:31.199Z,150
2017-05-09T09:19:56.677Z,150
2017-05-09T09:20:22.142Z,150
2017-05-09T09:20:47.621Z,150
2017-05-09T09:21:13.085Z,150
2017-05-09T09:21:38.569Z,145
2017-05-09T09:22:04.069Z,150
2017-05-09T09:22:29.554Z,150
2017-05-09T09:22:55.042Z,150
2017-05-09T09:23:20.547Z,145
2017-05-09T09:23:46.033Z,150
2017-05-09T09:24:11.522Z,150
2017-05-09T09:24:37.026Z,150
2017-05-09T09:25:02.494Z,150
2017-05-09T09:25:27.993Z,150
2017-05-09T09:25:53.475Z,150
2017-05-09T09:26:18.958Z,160
2017-05-09T09:26:44.437Z,155
2017-05-09T09:27:09.912Z,155
2017-05-09T09:27:35.375Z,150
2017-05-09T09:28:00.848Z,150
2017-05-09T09:28:26.344Z,145
2017-05-09T09:28:51.850Z,145
2017-05-09T09:29:17.316Z,140
2017-05-09T09:29:42.794Z,145
2017-05-09T09:30:08.289Z,145
2017-05-09T09:30:33.786Z,140
2017-05-09T09:30:59.238Z,140
2017-05-09T09:31:24.720Z,140
2017-05-09T09:31:50.209Z,140
2017-05-09T09:32:15.680Z,140
2017-05-09T09:32:41.175Z,145
2017-05-09T09:33:06.658Z,140
2017-05-09T09:33:32.143Z,140
2017-05-09T09:33:57.610Z,100
2017-05-09T09:34:23.075Z,95
2017-05-09T09:34:48.559Z,95
2017-05-09T09:35:14.068Z,95
2017-05-09T09:35:39.540Z,90
2017-05-09T09:36:05.014Z,90
2017-05-09T09:36:30.509Z,90
2017-05-09T09:36:55.988Z,90
2017-05-09T09:37:21.489Z,90
2017-05-09T09:37:46.967Z,90
2017-05-09T09:38:12.457Z,110
2017-05-09T09:38:37.940Z,125
2017-05-09T09:39:03.420Z,135
2017-05-09T09:39:28.892Z,135
2017-05-09T09:39:54.368Z,135
2017-05-09T09:40:19.861Z,135
2017-05-09T09:40:45.311Z,135
2017-05-09T09:41:10.826Z,135
2017-05-09T09:41:36.265Z,135
2017-05-09T09:42:01.773Z,135
2017-05-09T09:42:27.256Z,135
2017-05-09T09:42:52.754Z,135
2017-05-09T09:43:18.242Z,135
2017-05-09T09:43:43.742Z,140
2017-05-09T09:44:09.240Z,140
2017-05-09T09:44:34.726Z,145
2017-05-09T09:45:00.193Z,140
2017-05-09T09:45:25.672Z,140
2017-05-09T09:45:51.154Z,140
2017-05-09T09:46:16.660Z,140
2017-05-09T09:46:42.139Z,140
2017-05-09T09:47:07.602Z,140
2017-05-09T09:47:33.070Z,140
2017-05-09T09:47:58.555Z,140
2017-05-09T09:48:24.018Z,140
2017-05-09T09:48:49.506Z,140
2017-05-09T09:49:15.003Z,140
2017-05-09T09:49:40.507Z,140
2017-05-09T09:50:05.962Z,135
2017-05-09T09:50:31.426Z,140
2017-05-09T09:50:56.917Z,135
2017-05-09T09:51:22.390Z,130
2017-05-09T09:51:47.910Z,130
2017-05-09T09:52:13.432Z,130
2017-05-09T09:52:38.901Z,130
2017-05-09T09:53:04.393Z,135
2017-05-09T09:53:29.864Z,130
2017-05-09T09:53:55.360Z,130
2017-05-09T09:54:20.836Z,135
2017-05-09T09:54:46.304Z,135
2017-05-09T09:55:11.772Z,135
2017-05-09T09:55:37.224Z,135
2017-05-09T09:56:02.712Z,135
2017-05-09T09:56:28.180Z,140
2017-05-09T09:56:53.617Z,140
2017-05-09T09:57:19.098Z,145
2017-05-09T09:57:44.561Z,145
2017-05-09T09:58:10.061Z,150
2017-05-09T09:58:35.548Z,155
2017-05-09T09:59:01.047Z,155
2017-05-09T09:59:26.543Z,160
2017-05-09T09:59:52.044Z,165
2017-05-09T10:00:17.535Z,175
2017-05-09T10:00:43.031Z,180
2017-05-09T10:01:08.526Z,185
2017-05-09T10:01:33.987Z,190
2017-05-09T10:01:59.483Z,195
2017-05-09T10:02:24.973Z,195
2017-05-09T10:02:50.422Z,195
2017-05-09T10:03:15.902Z,190
2017-05-09T10:03:41.384Z,185
2017-05-09T10:04:06.862Z,185
2017-05-09T10:04:32.409Z,185
2017-05-09T10:04:57.869Z,185
2017-05-09T10:05:23.386Z,185
2017-05-09T10:05:48.898Z,180
2017-05-09T10:06:14.378Z,170
2017-05-09T10:06:39.855Z,160
2017-05-09T10:07:05.286Z,155
2017-05-09T10:07:30.735Z,155
2017-05-09T10:07:56.198Z,155
2017-05-09T10:08:21.664Z,155
2017-05-09T10:08:47.121Z,160
2017-05-09T10:09:12.577Z,160
2017-05-09T10:09:38.095Z,165
2017-05-09T10:10:03.534Z,165
2017-05-09T10:10:28.987Z,170
2017-05-09T10:10:54.459Z,175
2017-05-09T10:11:19.921Z,180
2017-05-09T10:11:45.418Z,180
2017-05-09T10:12:10.913Z,185
2017-05-09T10:12:36.395Z,185
2017-05-09T10:13:01.845Z,185
2017-05-09T10:13:27.308Z,185
2017-05-09T10:13:52.799Z,185
2017-05-09T10:14:18.284Z,190
2017-05-09T10:14:43.750Z,200
2017-05-09T10:15:09.228Z,215
2017-05-09T10:15:34.727Z,225
2017-05-09T10:16:00.195Z,225
2017-05-09T10:16:25.692Z,235
2017-05-09T10:16:51.130Z,240
2017-05-09T10:17:16.623Z,240
2017-05-09T10:17:42.071Z,245
2017-05-09T10:18:07.517Z,250
2017-05-09T10:18:33.034Z,260
2017-05-09T10:18:58.505Z,260
2017-05-09T10:19:23.976Z,265
2017-05-09T10:19:49.445Z,270
2017-05-09T10:20:14.923Z,270
2017-05-09T10:20:40.402Z,275
2017-05-09T10:21:05.864Z,275
2017-05-09T10:21:31.327Z,270
2017-05-09T10:21:56.831Z,270
2017-05-09T10:22:22.296Z,280
2017-05-09T10:22:47.783Z,285
2017-05-09T10:23:13.277Z,285
2017-05-09T10:23:38.749Z,285
2017-05-09T10:24:04.231Z,290
2017-05-09T10:24:29.717Z,290
2017-05-09T10:24:55.208Z,285
2017-05-09T10:25:20.672Z,280
2017-05-09T10:25:46.203Z,280
2017-05-09T10:26:11.622Z,265
2017-05-09T10:26:37.114Z,260
2017-05-09T10:27:02.595Z,250
2017-05-09T10:27:28.070Z,255
2017-05-09T10:27:53.561Z,250
2017-05-09T10:28:19.045Z,255
2017-05-09T10:28:44.507Z,255
2017-05-09T10:29:10.008Z,260
2017-05-09T10:29:35.497Z,260
2017-05-09T10:30:00.958Z,260
2017-05-09T10:30:26.436Z,255
2017-05-09T10:30:51.928Z,250
2017-05-09T10:31:17.388Z,250
2017-05-09T10:31:42.863Z,245
2017-05-09T10:32:08.333Z,240
2017-05-09T10:32:33.824Z,245
2017-05-09T10:32:59.310Z,245
2017-05-09T10:33:24.756Z,245
2017-05-09T10:33:50.233Z,250
2017-05-09T10:34:15.674Z,240
2017-05-09T10:34:41.167Z,235
2017-05-09T10:35:06.633Z,235
2017-05-09T10:35:32.144Z,240
2017-05-09T10:35:57.628Z,245